Time;durP1;ratioP1;P1;durP2;ratioP2;P2;SDS_P1;SDS_P2;PMS_P1;PMS_P2;Temp;Humidity;BMP_temperature;BMP_pressure;BME280_temperature;BME280_humidity;BME280_pressure;Samples;Min_cycle;Max_cycle;Signal;HPM_P1;HPM_P2
2021/12/05 00:41:09;;;;;;;8.35;5.32;;;6.90;85.30;;;;;;10748963;33;20025;-69
2021/12/05 00:47:44;;;;;;;4.70;3.15;;;6.90;85.30;;;;;;10747505;33;20032;-69
2021/12/05 01:18:19;;;;;;;5.53;3.20;;;6.60;85.20;;;;;;10795492;33;20052;-69
2021/12/05 01:24:42;;;;;;;8.05;3.83;;;6.60;85.10;;;;;;10799635;33;20032;-69
2021/12/05 02:45:47;;;;;;;13.95;7.22;;;6.80;85.10;;;;;;10676435;33;20037;-69
2021/12/05 02:52:26;;;;;;;8.18;4.85;;;6.80;84.90;;;;;;10787687;33;20051;-69
2021/12/05 02:59:07;;;;;;;10.18;6.37;;;6.60;84.60;;;;;;10790923;33;20091;-69
2021/12/05 03:04:59;;;;;;;9.90;5.30;;;6.50;84.50;;;;;;10786340;33;20055;-69
2021/12/05 03:11:02;;;;;;;9.77;4.37;;;6.40;84.80;;;;;;10790745;33;20063;-69
2021/12/05 03:17:04;;;;;;;8.63;6.20;;;6.40;84.80;;;;;;10792710;33;20316;-69
2021/12/05 03:23:09;;;;;;;9.48;6.03;;;6.40;84.80;;;;;;10790526;33;20099;-69
2021/12/05 03:29:13;;;;;;;6.12;3.87;;;6.50;84.90;;;;;;10789485;33;20043;-69
2021/12/05 03:35:19;;;;;;;9.60;5.87;;;6.50;84.80;;;;;;10789051;33;20036;-69
2021/12/05 03:41:24;;;;;;;7.82;5.25;;;6.60;85.00;;;;;;10790594;33;20024;-74
2021/12/05 03:47:28;;;;;;;8.65;5.50;;;6.60;84.70;;;;;;10789758;33;20032;-73
2021/12/05 03:53:32;;;;;;;7.55;4.60;;;6.50;84.60;;;;;;10785590;33;20047;-74
2021/12/05 03:59:35;;;;;;;11.48;6.15;;;6.40;84.60;;;;;;10789431;33;20050;-74
2021/12/05 04:05:39;;;;;;;11.65;7.85;;;6.40;84.40;;;;;;10789131;33;20035;-74
2021/12/05 04:11:49;;;;;;;10.52;6.65;;;6.40;84.30;;;;;;10789134;33;20029;-74
2021/12/05 04:17:52;;;;;;;10.32;7.15;;;6.30;84.30;;;;;;10788341;33;20105;-74
2021/12/05 04:23:56;;;;;;;8.05;4.35;;;6.30;84.30;;;;;;10788354;33;20033;-74
2021/12/05 04:29:58;;;;;;;5.97;3.25;;;6.30;84.40;;;;;;10788574;33;20435;-74
2021/12/05 04:36:01;;;;;;;7.12;4.60;;;6.30;84.40;;;;;;10788589;33;20349;-74
2021/12/05 04:42:04;;;;;;;9.75;7.00;;;6.40;84.50;;;;;;10787618;33;20036;-75
2021/12/05 04:48:08;;;;;;;11.85;7.90;;;6.30;84.30;;;;;;10788235;33;20028;-74
2021/12/05 04:54:14;;;;;;;14.07;10.93;;;6.20;84.00;;;;;;10788104;33;20024;-74
2021/12/05 05:00:24;;;;;;;17.02;8.85;;;6.20;83.90;;;;;;10783984;33;20028;-74
2021/12/05 05:06:46;;;;;;;14.93;9.37;;;6.10;83.90;;;;;;10787773;33;20028;-74
2021/12/05 05:12:49;;;;;;;14.95;9.88;;;6.10;83.80;;;;;;10774550;33;20376;-74
2021/12/05 05:18:55;;;;;;;13.32;10.68;;;6.00;83.60;;;;;;10787545;33;20020;-74
2021/12/05 05:50:36;;;;;;;20.50;13.55;;;5.90;83.50;;;;;;10788025;33;20039;-74
2021/12/05 05:56:41;;;;;;;14.30;10.20;;;5.80;83.50;;;;;;10793178;33;20074;-75
2021/12/05 06:09:05;;;;;;;17.17;13.27;;;5.80;83.60;;;;;;10794128;33;20024;-75
2021/12/05 06:15:10;;;;;;;27.60;20.05;;;5.70;83.60;;;;;;10794656;33;20340;-77
2021/12/05 06:21:14;;;;;;;24.83;17.37;;;5.70;83.80;;;;;;10796049;33;20033;-76
2021/12/05 06:27:16;;;;;;;27.35;22.70;;;5.60;83.80;;;;;;10782843;33;20024;-78
2021/12/05 06:39:49;;;;;;;25.98;19.50;;;5.50;84.10;;;;;;10798463;33;20020;-77
2021/12/05 06:46:03;;;;;;;22.98;18.27;;;5.50;84.10;;;;;;10799869;33;20024;-77
2021/12/05 06:52:07;;;;;;;24.77;20.02;;;5.60;84.20;;;;;;10800378;33;20024;-78
2021/12/05 06:58:09;;;;;;;27.55;20.98;;;5.50;84.20;;;;;;10801539;33;20141;-77
2021/12/05 07:04:47;;;;;;;25.60;20.80;;;5.50;84.40;;;;;;10801783;33;20068;-77
2021/12/05 07:11:33;;;;;;;28.08;21.23;;;5.50;84.40;;;;;;10799156;33;20020;-78
2021/12/05 07:42:21;;;;;;;26.58;19.37;;;5.50;84.50;;;;;;10790214;33;20029;-70
2021/12/05 07:48:32;;;;;;;28.12;22.83;;;5.60;84.50;;;;;;10790007;33;20016;-70
2021/12/05 07:54:42;;;;;;;25.55;18.83;;;5.60;84.50;;;;;;10777422;33;20020;-70
2021/12/05 08:01:04;;;;;;;21.62;17.50;;;5.60;84.40;;;;;;10776544;33;20284;-70
2021/12/05 08:19:50;;;;;;;18.83;14.50;;;5.90;84.30;;;;;;10785539;33;20036;-70
2021/12/05 08:26:07;;;;;;;22.92;14.07;;;5.80;84.30;;;;;;10788839;33;20023;-70
2021/12/05 08:45:11;;;;;;;22.98;17.30;;;5.80;84.30;;;;;;10787950;33;20325;-70
2021/12/05 09:23:36;;;;;;;25.27;20.80;;;5.90;84.30;;;;;;10787573;33;20054;-74
2021/12/05 09:29:55;;;;;;;22.03;16.13;;;5.80;84.30;;;;;;10792495;33;20051;-74
2021/12/05 10:14:17;;;;;;;26.23;20.75;;;6.20;83.80;;;;;;10792303;33;20060;-69
2021/12/05 10:26:19;;;;;;;41.65;34.10;;;6.30;83.70;;;;;;10792669;32;20064;-69
2021/12/05 10:46:08;;;;;;;28.73;21.90;;;6.20;83.60;;;;;;10679361;33;20025;-70
2021/12/05 10:52:14;;;;;;;40.67;28.65;;;6.20;83.70;;;;;;10666432;33;20191;-71
2021/12/05 10:58:16;;;;;;;39.03;29.50;;;6.20;83.60;;;;;;10679458;33;20025;-70
2021/12/05 11:04:25;;;;;;;29.20;21.00;;;6.50;83.70;;;;;;10679043;33;20063;-70
2021/12/05 11:10:27;;;;;;;37.20;30.00;;;6.80;83.70;;;;;;10679167;33;20025;-71
2021/12/05 11:16:38;;;;;;;27.73;22.05;;;7.20;83.80;;;;;;10678863;32;20080;-71
2021/12/05 11:22:43;;;;;;;30.10;23.20;;;7.50;83.60;;;;;;10762745;33;20388;-70
2021/12/05 11:28:56;;;;;;;36.97;29.40;;;7.70;83.50;;;;;;10775341;33;20414;-70
2021/12/05 11:35:11;;;;;;;32.25;25.70;;;7.80;83.80;;;;;;10790487;33;20020;-70
2021/12/05 11:41:20;;;;;;;32.60;24.00;;;7.90;83.70;;;;;;10777211;33;20039;-71
2021/12/05 11:47:24;;;;;;;34.80;26.17;;;8.00;83.80;;;;;;10788088;32;20055;-70
2021/12/05 11:53:41;;;;;;;27.55;21.67;;;8.20;83.90;;;;;;10789211;32;20046;-70
2021/12/05 11:59:53;;;;;;;30.83;24.27;;;8.50;83.40;;;;;;10789126;33;20031;-70
2021/12/05 12:05:55;;;;;;;21.95;15.82;;;8.40;82.90;;;;;;10789251;33;20042;-71
2021/12/05 12:11:58;;;;;;;20.30;13.62;;;8.20;83.30;;;;;;10789309;33;20313;-70
2021/12/05 12:18:10;;;;;;;26.77;21.40;;;8.10;83.40;;;;;;10789292;33;20317;-70
2021/12/05 12:24:13;;;;;;;24.40;19.15;;;7.90;83.60;;;;;;10788897;33;20032;-71
2021/12/05 12:30:24;;;;;;;28.92;22.10;;;7.80;83.80;;;;;;10788916;33;20204;-70
2021/12/05 12:36:52;;;;;;;32.00;25.30;;;7.80;83.90;;;;;;10778985;33;20055;-70
2021/12/05 12:42:54;;;;;;;28.60;20.98;;;7.90;84.00;;;;;;10788547;32;20024;-70
2021/12/05 12:48:58;;;;;;;29.15;20.25;;;7.90;84.10;;;;;;10788311;33;20058;-70
2021/12/05 12:55:01;;;;;;;23.23;18.48;;;7.80;84.10;;;;;;10788317;33;20020;-70
2021/12/05 13:02:03;;;;;;;21.20;15.77;;;7.80;84.10;;;;;;10787448;33;20028;-70
2021/12/05 13:15:11;;;;;;;19.35;12.98;;;7.80;83.90;;;;;;10787836;33;20046;-70
2021/12/05 13:21:16;;;;;;;24.52;17.98;;;7.80;84.00;;;;;;10787620;33;20312;-70
2021/12/05 13:27:31;;;;;;;23.62;16.25;;;7.70;83.80;;;;;;10787378;33;20032;-70
2021/12/05 13:33:33;;;;;;;18.17;14.55;;;7.70;83.80;;;;;;10787247;33;20020;-70
2021/12/05 13:39:49;;;;;;;15.93;12.05;;;7.60;84.10;;;;;;10787178;33;20058;-70
2021/12/05 13:45:55;;;;;;;18.02;14.23;;;7.70;83.90;;;;;;10785655;33;20020;-70
2021/12/05 13:52:32;;;;;;;18.85;12.70;;;7.60;84.00;;;;;;10787222;32;20050;-70
2021/12/05 13:58:43;;;;;;;22.73;16.80;;;7.70;84.10;;;;;;10776972;32;20025;-70
2021/12/05 14:04:52;;;;;;;24.08;18.60;;;7.70;84.20;;;;;;10787994;33;20024;-70
2021/12/05 14:10:56;;;;;;;23.92;17.45;;;7.60;83.90;;;;;;10788145;33;20038;-70
2021/12/05 14:17:09;;;;;;;24.17;18.25;;;7.50;83.80;;;;;;10792342;33;20062;-70
2021/12/05 14:23:19;;;;;;;;;;;7.40;83.80;;;;;;10794695;33;20355;-70
2021/12/05 14:29:26;;;;;;;27.80;20.40;;;7.40;84.10;;;;;;10794428;33;19950;-70
2021/12/05 14:35:38;;;;;;;17.67;13.90;;;7.40;84.30;;;;;;10793573;33;20114;-70
2021/12/05 14:41:44;;;;;;;25.70;18.27;;;7.30;84.40;;;;;;10788260;33;20047;-70
2021/12/05 14:47:48;;;;;;;29.27;20.40;;;7.30;84.60;;;;;;10789470;33;20396;-70
2021/12/05 14:53:50;;;;;;;16.37;12.63;;;7.30;84.60;;;;;;10778532;33;20043;-70
2021/12/05 15:00:09;;;;;;;24.58;16.58;;;7.30;84.80;;;;;;10791268;33;20020;-70
2021/12/05 15:06:35;;;;;;;26.35;19.23;;;7.40;84.70;;;;;;10788648;33;20066;-70
2021/12/05 15:12:37;;;;;;;19.40;14.25;;;7.40;84.60;;;;;;10791172;33;20035;-70
2021/12/05 15:18:40;;;;;;;18.92;14.32;;;7.40;84.70;;;;;;10777848;33;20055;-70
2021/12/05 15:24:51;;;;;;;21.90;14.95;;;7.30;84.70;;;;;;10790323;33;20340;-70
2021/12/05 15:30:53;;;;;;;22.13;17.27;;;7.20;84.90;;;;;;10790476;33;20033;-74
2021/12/05 15:36:57;;;;;;;25.95;18.75;;;7.20;85.00;;;;;;10790401;33;20019;-74
2021/12/05 15:43:09;;;;;;;18.08;13.23;;;7.20;85.10;;;;;;10787216;33;20078;-74
2021/12/05 15:49:11;;;;;;;22.17;14.63;;;7.20;85.20;;;;;;10789998;33;20020;-74
2021/12/05 15:55:19;;;;;;;17.05;12.75;;;7.20;85.20;;;;;;10789830;33;20028;-74
2021/12/05 16:01:24;;;;;;;13.35;9.95;;;7.20;85.20;;;;;;10789682;33;20012;-74
2021/12/05 16:07:31;;;;;;;16.33;10.88;;;7.30;85.10;;;;;;10789326;33;20050;-74
2021/12/05 16:13:38;;;;;;;10.88;7.47;;;7.20;85.10;;;;;;10789473;33;20340;-70
2021/12/05 16:20:01;;;;;;;11.12;7.35;;;7.20;85.30;;;;;;10773711;33;20294;-70
2021/12/05 16:26:20;;;;;;;7.28;4.87;;;7.20;85.30;;;;;;10788963;33;20020;-70
2021/12/05 16:32:22;;;;;;;9.67;6.43;;;7.20;85.40;;;;;;10771706;33;20090;-70
2021/12/05 16:38:32;;;;;;;11.15;6.53;;;7.20;85.20;;;;;;10787915;33;20024;-70
2021/12/05 16:44:38;;;;;;;10.82;8.27;;;7.20;85.20;;;;;;10788451;33;20028;-70
2021/12/05 16:50:40;;;;;;;13.05;8.38;;;7.20;85.20;;;;;;10787869;33;20094;-70
2021/12/05 16:57:06;;;;;;;8.82;5.85;;;7.10;85.20;;;;;;10788303;33;20051;-70
2021/12/05 17:03:15;;;;;;;8.95;6.45;;;7.00;85.50;;;;;;10788085;33;20021;-74
2021/12/05 17:09:18;;;;;;;5.85;3.80;;;7.00;85.70;;;;;;10788485;33;20050;-74
2021/12/05 17:15:29;;;;;;;4.68;2.62;;;7.00;85.50;;;;;;10787862;33;20298;-74
2021/12/05 17:21:50;;;;;;;4.12;2.20;;;6.90;85.60;;;;;;10787795;33;20401;-73
2021/12/05 17:27:52;;;;;;;3.83;2.15;;;6.90;85.50;;;;;;10787303;33;20059;-73
2021/12/05 17:33:57;;;;;;;4.95;3.10;;;6.80;85.70;;;;;;10787411;33;20020;-73
2021/12/05 17:40:03;;;;;;;4.00;2.33;;;6.80;85.60;;;;;;10785270;33;20060;-73
2021/12/05 17:46:06;;;;;;;1.92;1.23;;;6.70;85.40;;;;;;10819138;27;20027;-69
2021/12/05 17:52:13;;;;;;;2.95;1.60;;;6.70;85.60;;;;;;10830047;33;20035;-70
2021/12/05 18:04:37;;;;;;;3.78;1.80;;;6.60;85.80;;;;;;10829866;33;20024;-69
2021/12/05 18:10:47;;;;;;;3.10;1.85;;;6.50;85.80;;;;;;10829784;33;20396;-68
2021/12/05 18:16:50;;;;;;;5.65;2.42;;;6.50;86.00;;;;;;10829452;33;20055;-75
2021/12/05 18:22:56;;;;;;;1.98;1.20;;;6.50;85.90;;;;;;10829313;33;20015;-74
2021/12/05 18:28:58;;;;;;;1.85;1.08;;;6.50;86.10;;;;;;10829080;33;20050;-74
2021/12/05 18:35:01;;;;;;;1.45;1.00;;;6.60;86.10;;;;;;10828966;33;20043;-74
2021/12/05 18:41:08;;;;;;;3.85;1.83;;;6.60;86.10;;;;;;10828845;33;20024;-75
2021/12/05 18:47:10;;;;;;;2.47;1.08;;;6.60;86.10;;;;;;10828594;33;20204;-75
2021/12/05 18:53:16;;;;;;;0.90;0.70;;;6.60;86.00;;;;;;10828530;33;20032;-72
2021/12/05 18:59:19;;;;;;;1.05;0.50;;;6.60;86.20;;;;;;10827598;32;20325;-75
2021/12/05 19:05:45;;;;;;;3.97;1.52;;;6.70;86.20;;;;;;10828056;33;20050;-75
2021/12/05 19:11:53;;;;;;;2.37;1.35;;;6.80;86.00;;;;;;10827902;33;20020;-74
2021/12/05 19:17:56;;;;;;;2.47;1.17;;;6.70;85.90;;;;;;10809711;33;20032;-74
2021/12/05 19:23:59;;;;;;;4.00;1.98;;;6.70;86.10;;;;;;10790844;33;20012;-75
2021/12/05 19:30:01;;;;;;;3.42;1.60;;;6.70;86.20;;;;;;10790784;32;20067;-74
2021/12/05 19:36:04;;;;;;;5.25;2.05;;;6.70;86.20;;;;;;10840801;32;20024;-71
2021/12/05 19:42:08;;;;;;;6.40;2.12;;;6.70;86.30;;;;;;10790230;32;20047;-71
2021/12/05 19:48:10;;;;;;;4.10;2.03;;;6.70;86.30;;;;;;10790186;33;20371;-71
2021/12/05 19:54:13;;;;;;;3.72;2.28;;;6.70;86.30;;;;;;10789999;32;20032;-71
2021/12/05 20:00:19;;;;;;;2.85;1.90;;;6.70;86.20;;;;;;10789724;33;20047;-71
2021/12/05 20:06:22;;;;;;;2.65;1.87;;;6.60;86.30;;;;;;10789466;33;20060;-71
2021/12/05 20:12:25;;;;;;;4.00;2.53;;;6.70;86.30;;;;;;10789314;33;20017;-71
2021/12/05 20:18:27;;;;;;;3.08;2.03;;;6.80;86.10;;;;;;10789022;33;20066;-71
2021/12/05 20:24:32;;;;;;;6.57;3.12;;;6.80;86.10;;;;;;10839165;32;20020;-74
2021/12/05 20:30:36;;;;;;;4.97;2.87;;;6.80;86.10;;;;;;10788835;33;20047;-74
2021/12/05 20:36:38;;;;;;;3.03;2.03;;;6.90;86.10;;;;;;10788717;33;20047;-74
2021/12/05 20:42:41;;;;;;;4.97;1.95;;;6.90;86.00;;;;;;10788723;32;20042;-74
2021/12/05 20:48:43;;;;;;;3.83;1.92;;;6.90;85.90;;;;;;10788386;33;20020;-71
2021/12/05 20:54:46;;;;;;;6.70;4.57;;;6.80;85.80;;;;;;10838171;32;20040;-71
2021/12/05 21:00:55;;;;;;;9.95;7.30;;;6.70;85.80;;;;;;10788145;33;20146;-71
2021/12/05 21:06:57;;;;;;;7.20;4.40;;;6.70;85.80;;;;;;10789071;33;20047;-71
2021/12/05 21:13:01;;;;;;;6.68;4.55;;;6.70;85.80;;;;;;10787951;33;20337;-71
2021/12/05 21:19:03;;;;;;;10.32;6.12;;;6.70;85.80;;;;;;10787733;33;20397;-71
2021/12/05 21:25:08;;;;;;;6.72;4.87;;;6.70;85.80;;;;;;10791454;33;20031;-74
2021/12/05 21:31:12;;;;;;;9.55;5.30;;;6.70;85.80;;;;;;10793914;33;20032;-75
2021/12/05 21:37:14;;;;;;;9.43;6.28;;;6.70;85.70;;;;;;10793894;33;20021;-74
2021/12/05 21:43:18;;;;;;;10.13;6.12;;;6.70;85.60;;;;;;10793764;33;20020;-75
2021/12/05 21:49:20;;;;;;;8.90;6.05;;;6.70;85.70;;;;;;10793552;33;20028;-75
2021/12/05 21:55:23;;;;;;;11.95;5.85;;;6.70;85.70;;;;;;10793328;33;20055;-75
2021/12/05 22:01:26;;;;;;;9.10;5.60;;;6.70;85.60;;;;;;10793126;33;20349;-75
2021/12/05 22:07:28;;;;;;;10.27;5.65;;;6.70;85.70;;;;;;10792973;33;20028;-74
2021/12/05 22:13:30;;;;;;;8.45;5.32;;;6.80;85.70;;;;;;10787895;33;20024;-75
2021/12/05 22:19:37;;;;;;;7.07;3.83;;;6.70;85.60;;;;;;10792666;33;20024;-75
2021/12/05 22:25:40;;;;;;;8.40;5.82;;;6.70;85.70;;;;;;10788357;33;20394;-74
2021/12/05 22:31:44;;;;;;;7.22;3.83;;;6.70;85.70;;;;;;10792487;33;20020;-74
2021/12/05 22:37:47;;;;;;;9.88;4.50;;;6.80;85.60;;;;;;10791199;33;20032;-74
2021/12/05 22:43:49;;;;;;;6.50;3.75;;;6.80;85.60;;;;;;10791951;33;20043;-74
2021/12/05 22:49:51;;;;;;;8.75;5.40;;;6.80;85.60;;;;;;10791826;33;20068;-74
2021/12/05 22:55:54;;;;;;;5.18;3.20;;;6.80;85.50;;;;;;10791637;33;20032;-74
2021/12/05 23:01:57;;;;;;;5.18;3.00;;;6.70;85.60;;;;;;10791598;33;20021;-75
2021/12/05 23:08:00;;;;;;;7.00;3.70;;;6.80;85.60;;;;;;10791234;33;20059;-75
2021/12/05 23:14:05;;;;;;;4.53;3.03;;;6.70;85.60;;;;;;10791108;33;20078;-75
2021/12/05 23:20:07;;;;;;;6.50;3.30;;;6.70;85.60;;;;;;10790901;33;20109;-75
2021/12/05 23:26:10;;;;;;;7.30;4.15;;;6.70;85.60;;;;;;10790762;33;20032;-75
2021/12/05 23:32:17;;;;;;;5.30;3.03;;;6.70;85.60;;;;;;10790624;33;20024;-70
2021/12/05 23:38:20;;;;;;;6.47;3.45;;;6.70;85.60;;;;;;10790558;33;20024;-71
2021/12/05 23:44:23;;;;;;;7.20;4.80;;;6.70;85.60;;;;;;10785745;33;20058;-71
2021/12/05 23:50:30;;;;;;;7.00;3.95;;;6.70;85.60;;;;;;10790148;33;20016;-71
2021/12/05 23:56:33;;;;;;;3.37;2.40;;;6.70;85.70;;;;;;10790024;33;20344;-71
